createdAt,value
2017-10-29T00:01:44.952Z,6.67
2017-10-29T00:04:14.306Z,6.53
2017-10-29T00:06:42.677Z,6.10
2017-10-29T00:09:11.060Z,6.53
2017-10-29T00:11:39.706Z,7.60
2017-10-29T00:14:08.129Z,7.60
2017-10-29T00:16:36.533Z,6.70
2017-10-29T00:19:05.001Z,7.83
2017-10-29T00:21:33.369Z,5.70
2017-10-29T00:24:01.760Z,6.40
2017-10-29T00:26:30.096Z,5.57
2017-10-29T00:28:58.500Z,6.53
2017-10-29T00:31:26.813Z,5.50
2017-10-29T00:33:55.120Z,5.60
2017-10-29T00:36:23.566Z,6.97
2017-10-29T00:41:26.536Z,5.10
2017-10-29T00:43:54.847Z,5.37
2017-10-29T00:46:23.174Z,5.43
2017-10-29T00:48:51.525Z,5.07
2017-10-29T00:51:19.833Z,4.80
2017-10-29T00:53:48.168Z,5.13
2017-10-29T00:56:16.536Z,3.77
2017-10-29T00:58:44.860Z,4.37
2017-10-29T01:01:13.200Z,4.67
2017-10-29T01:03:41.631Z,3.17
2017-10-29T01:06:10.031Z,3.70
2017-10-29T01:08:38.371Z,3.03
2017-10-29T01:11:06.801Z,3.00
2017-10-29T01:13:35.734Z,3.07
2017-10-29T01:16:04.093Z,2.97
2017-10-29T01:18:32.538Z,2.40
2017-10-29T01:21:00.825Z,2.57
2017-10-29T01:23:29.143Z,2.80
2017-10-29T01:25:57.479Z,2.60
2017-10-29T01:28:25.774Z,2.77
2017-10-29T01:30:54.073Z,2.23
2017-10-29T01:33:22.529Z,1.90
2017-10-29T01:35:50.840Z,2.70
2017-10-29T01:38:19.137Z,2.33
2017-10-29T01:40:47.560Z,3.00
2017-10-29T01:43:15.894Z,2.40
2017-10-29T01:45:44.224Z,2.30
2017-10-29T01:48:12.565Z,2.57
2017-10-29T01:50:40.907Z,2.30
2017-10-29T01:53:09.213Z,1.97
2017-10-29T01:55:37.545Z,2.43
2017-10-29T01:58:05.856Z,2.40
2017-10-29T02:00:34.150Z,3.10
2017-10-29T02:03:02.489Z,2.10
2017-10-29T02:05:30.794Z,1.77
2017-10-29T02:07:59.119Z,2.53
2017-10-29T02:10:27.457Z,2.33
2017-10-29T02:12:55.745Z,3.20
2017-10-29T02:15:24.049Z,2.60
2017-10-29T02:17:52.691Z,3.40
2017-10-29T02:20:20.990Z,2.97
2017-10-29T02:22:49.836Z,2.30
2017-10-29T02:25:18.232Z,2.90
2017-10-29T02:27:46.566Z,3.17
2017-10-29T02:30:14.881Z,2.10
2017-10-29T02:32:43.246Z,2.13
2017-10-29T02:35:11.544Z,2.87
2017-10-29T02:37:39.855Z,1.90
2017-10-29T02:40:09.079Z,2.20
2017-10-29T02:42:37.377Z,1.60
2017-10-29T02:45:05.693Z,2.40
2017-10-29T02:47:34.122Z,2.03
2017-10-29T02:50:02.417Z,1.50
2017-10-29T02:52:30.760Z,1.47
2017-10-29T02:54:59.186Z,1.43
2017-10-29T02:57:27.505Z,1.67
2017-10-29T02:59:55.864Z,1.67
2017-10-29T03:02:24.206Z,17.70
2017-10-29T03:04:53.419Z,1.73
2017-10-29T03:07:21.712Z,1.60
2017-10-29T03:09:50.068Z,1.30
2017-10-29T03:12:18.381Z,1.60
2017-10-29T03:14:46.682Z,1.90
2017-10-29T03:17:15.044Z,1.40
2017-10-29T03:19:43.352Z,1.40
2017-10-29T03:22:11.733Z,2.00
2017-10-29T03:24:40.112Z,1.60
2017-10-29T03:27:08.497Z,1.70
2017-10-29T03:29:36.862Z,1.70
2017-10-29T03:32:05.366Z,1.47
2017-10-29T03:34:33.748Z,1.23
2017-10-29T03:37:02.113Z,1.10
2017-10-29T03:39:30.501Z,1.70
2017-10-29T03:41:58.861Z,1.23
2017-10-29T03:44:27.204Z,1.23
2017-10-29T03:46:55.665Z,1.60
2017-10-29T03:49:24.041Z,1.40
2017-10-29T03:51:52.417Z,1.57
2017-10-29T03:54:20.944Z,1.67
2017-10-29T03:56:49.300Z,1.10
2017-10-29T03:59:17.747Z,1.30
2017-10-29T04:01:47.453Z,1.53
2017-10-29T04:04:15.848Z,1.00
2017-10-29T04:06:44.286Z,1.07
2017-10-29T04:09:12.748Z,1.27
2017-10-29T04:11:42.112Z,1.47
2017-10-29T04:14:10.784Z,1.10
2017-10-29T04:16:39.173Z,1.17
2017-10-29T04:19:07.554Z,1.43
2017-10-29T04:21:37.054Z,1.10
2017-10-29T04:24:06.047Z,0.90
2017-10-29T04:26:34.390Z,1.40
2017-10-29T04:31:41.649Z,1.10
2017-10-29T04:34:10.065Z,1.73
2017-10-29T04:36:39.891Z,0.80
2017-10-29T04:39:08.744Z,1.20
2017-10-29T04:41:39.989Z,1.23
2017-10-29T04:50:28.683Z,1.60
2017-10-29T04:58:48.900Z,1.30
2017-10-29T05:04:28.033Z,1.00
2017-10-29T05:06:56.395Z,1.10
2017-10-29T05:12:25.015Z,0.93
2017-10-29T05:14:53.364Z,0.90
2017-10-29T05:37:42.220Z,0.77
2017-10-29T05:40:10.761Z,1.10
2017-10-29T05:45:13.571Z,0.90
2017-10-29T05:47:42.015Z,1.03
2017-10-29T05:53:01.266Z,0.90
2017-10-29T05:55:29.800Z,1.00
2017-10-29T06:00:37.602Z,0.80
2017-10-29T06:03:05.935Z,0.90
2017-10-29T06:13:57.008Z,1.00
2017-10-29T06:16:25.604Z,0.80
2017-10-29T06:18:53.986Z,0.80
2017-10-29T06:21:23.879Z,1.00
2017-10-29T06:23:52.234Z,0.70
2017-10-29T06:31:58.636Z,0.67
2017-10-29T06:37:36.435Z,0.87
2017-10-29T06:40:04.814Z,1.20
2017-10-29T06:42:41.116Z,0.90
2017-10-29T06:47:58.065Z,0.87
2017-10-29T06:50:38.379Z,1.00
2017-10-29T06:53:07.230Z,0.90
2017-10-29T06:55:59.033Z,0.90
2017-10-29T07:04:40.560Z,0.80
2017-10-29T07:13:00.406Z,1.20
2017-10-29T07:15:40.494Z,0.70
2017-10-29T07:18:11.664Z,0.90
2017-10-29T07:21:11.970Z,0.70
2017-10-29T07:23:41.401Z,0.90
2017-10-29T07:29:19.611Z,0.90
2017-10-29T07:31:51.855Z,1.17
2017-10-29T07:37:30.081Z,1.30
2017-10-29T07:39:58.494Z,1.90
2017-10-29T07:57:44.737Z,1.50
2017-10-29T08:06:42.277Z,0.93
2017-10-29T08:09:11.504Z,1.33
2017-10-29T08:14:34.330Z,1.30
2017-10-29T08:17:03.113Z,1.43
2017-10-29T08:19:31.506Z,1.10
2017-10-29T08:22:00.017Z,0.90
2017-10-29T08:24:28.581Z,1.40
2017-10-29T08:27:12.460Z,1.13
2017-10-29T08:29:41.352Z,0.90
2017-10-29T08:35:32.816Z,1.27
2017-10-29T08:38:01.317Z,1.00
2017-10-29T08:43:24.157Z,0.90
2017-10-29T08:45:52.800Z,0.80
2017-10-29T08:48:21.136Z,0.87
2017-10-29T08:50:55.435Z,1.77
2017-10-29T08:53:40.804Z,1.20
2017-10-29T09:02:29.375Z,1.20
2017-10-29T09:04:58.135Z,1.10
2017-10-29T09:13:36.552Z,1.40
2017-10-29T09:16:05.463Z,1.03
2017-10-29T09:21:49.354Z,1.30
2017-10-29T09:24:30.484Z,1.23
2017-10-29T09:26:59.249Z,1.10
2017-10-29T09:29:50.983Z,0.90
2017-10-29T09:35:30.058Z,1.10
2017-10-29T09:41:24.652Z,0.90
2017-10-29T09:50:08.337Z,1.03
2017-10-29T09:56:11.353Z,0.87
2017-10-29T10:04:02.290Z,1.23
2017-10-29T10:24:34.729Z,0.87
2017-10-29T10:27:03.373Z,1.10
2017-10-29T10:29:31.711Z,1.10
2017-10-29T10:32:02.210Z,0.87
2017-10-29T10:34:30.790Z,1.37
2017-10-29T10:36:59.304Z,0.97
2017-10-29T10:42:05.934Z,1.07
2017-10-29T10:44:35.155Z,1.20
2017-10-29T10:47:08.542Z,1.40
2017-10-29T10:49:37.081Z,1.47
2017-10-29T10:52:11.625Z,1.27
2017-10-29T10:54:40.858Z,1.40
2017-10-29T10:57:09.295Z,1.23
2017-10-29T10:59:38.203Z,1.23
2017-10-29T11:02:06.899Z,1.00
2017-10-29T11:04:41.043Z,1.43
2017-10-29T11:07:09.874Z,1.47
2017-10-29T11:09:38.365Z,1.23
2017-10-29T11:12:10.203Z,1.20
2017-10-29T11:14:38.623Z,1.60
2017-10-29T11:17:06.971Z,1.47
2017-10-29T11:19:35.328Z,1.43
2017-10-29T11:22:03.666Z,1.30
2017-10-29T11:24:31.968Z,1.50
2017-10-29T11:27:00.266Z,1.80
2017-10-29T11:29:28.607Z,1.40
2017-10-29T11:31:56.921Z,1.37
2017-10-29T11:34:25.226Z,2.00
2017-10-29T11:36:53.669Z,2.30
2017-10-29T11:39:22.079Z,2.63
2017-10-29T11:41:50.409Z,3.73
2017-10-29T11:44:18.773Z,3.10
2017-10-29T11:46:47.064Z,3.03
2017-10-29T11:49:15.369Z,3.00
2017-10-29T11:51:43.822Z,3.40
2017-10-29T11:54:12.131Z,3.27
2017-10-29T11:56:40.464Z,3.00
2017-10-29T11:59:08.786Z,4.10
2017-10-29T12:01:37.100Z,2.53
2017-10-29T12:04:05.400Z,1.83
2017-10-29T12:06:33.755Z,2.03
2017-10-29T12:09:02.061Z,2.70
2017-10-29T12:11:30.356Z,2.53
2017-10-29T12:13:58.702Z,3.10
2017-10-29T12:16:27.005Z,5.57
2017-10-29T12:18:55.337Z,2.93
2017-10-29T12:21:23.850Z,3.50
2017-10-29T12:23:52.141Z,2.13
2017-10-29T12:26:20.437Z,3.97
2017-10-29T12:28:48.864Z,3.97
2017-10-29T12:31:17.171Z,4.13
2017-10-29T12:33:45.494Z,3.53
2017-10-29T12:36:14.177Z,3.23
2017-10-29T12:38:42.535Z,3.87
2017-10-29T12:41:11.481Z,3.60
2017-10-29T12:43:39.860Z,4.43
2017-10-29T12:46:08.176Z,5.23
2017-10-29T12:48:36.494Z,4.80
2017-10-29T12:51:04.966Z,5.63
2017-10-29T12:53:33.289Z,3.60
2017-10-29T12:56:01.592Z,3.40
2017-10-29T12:58:29.919Z,4.80
2017-10-29T13:00:58.246Z,3.87
2017-10-29T13:03:26.548Z,3.37
2017-10-29T13:05:54.925Z,4.00
2017-10-29T13:08:23.506Z,2.87
2017-10-29T13:10:51.845Z,3.00
2017-10-29T13:13:20.209Z,3.50
2017-10-29T13:15:48.517Z,5.97
2017-10-29T13:18:16.838Z,3.20
2017-10-29T13:20:45.192Z,2.90
2017-10-29T13:23:13.536Z,3.13
2017-10-29T13:25:41.872Z,3.63
2017-10-29T13:28:11.127Z,3.53
2017-10-29T13:30:39.455Z,3.43
2017-10-29T13:33:07.748Z,3.13
2017-10-29T13:35:36.100Z,3.70
2017-10-29T13:38:04.530Z,2.97
2017-10-29T13:40:32.835Z,2.60
2017-10-29T13:43:01.281Z,3.53
2017-10-29T13:45:29.630Z,3.70
2017-10-29T13:47:57.997Z,2.97
2017-10-29T13:50:26.329Z,2.80
2017-10-29T13:52:54.751Z,3.00
2017-10-29T13:55:23.158Z,2.30
2017-10-29T13:57:51.645Z,2.53
2017-10-29T14:00:19.957Z,3.07
2017-10-29T14:02:48.280Z,3.13
2017-10-29T14:05:16.659Z,3.13
2017-10-29T14:07:45.019Z,2.30
2017-10-29T14:10:13.352Z,3.43
2017-10-29T14:15:17.854Z,3.90
2017-10-29T14:17:46.701Z,2.67
2017-10-29T14:20:15.051Z,3.60
2017-10-29T14:22:43.417Z,3.77
2017-10-29T14:25:11.950Z,3.63
2017-10-29T14:27:40.299Z,4.50
2017-10-29T14:32:41.331Z,2.87
2017-10-29T14:35:12.410Z,3.30
2017-10-29T14:37:41.609Z,3.10
2017-10-29T14:40:10.913Z,3.83
2017-10-29T14:42:39.849Z,4.87
2017-10-29T14:45:08.259Z,3.37
2017-10-29T14:47:38.402Z,3.90
2017-10-29T14:50:06.714Z,4.03
2017-10-29T14:52:37.081Z,4.40
2017-10-29T14:55:05.406Z,4.13
2017-10-29T14:57:33.834Z,3.70
2017-10-29T15:00:02.278Z,3.93
2017-10-29T15:02:30.605Z,2.83
2017-10-29T15:04:58.932Z,3.17
2017-10-29T15:07:27.273Z,5.43
2017-10-29T15:09:57.639Z,4.43
2017-10-29T15:12:26.039Z,4.43
2017-10-29T15:14:55.480Z,4.47
2017-10-29T15:17:23.814Z,4.27
2017-10-29T15:19:53.100Z,4.60
2017-10-29T15:22:22.156Z,3.47
2017-10-29T15:24:50.486Z,3.77
2017-10-29T15:27:18.805Z,4.30
2017-10-29T15:29:47.418Z,3.83
2017-10-29T15:34:49.909Z,5.60
2017-10-29T15:37:18.488Z,3.90
2017-10-29T15:39:46.808Z,5.03
2017-10-29T15:42:15.475Z,3.43
2017-10-29T15:44:43.861Z,6.33
2017-10-29T15:47:12.393Z,3.70
2017-10-29T15:49:40.766Z,3.50
2017-10-29T15:52:09.097Z,4.40
2017-10-29T15:54:37.450Z,3.87
2017-10-29T15:57:06.768Z,4.00
2017-10-29T15:59:35.259Z,3.90
2017-10-29T16:02:03.677Z,5.00
2017-10-29T16:04:32.156Z,3.60
2017-10-29T16:07:00.479Z,3.73
2017-10-29T16:09:28.909Z,4.70
2017-10-29T16:11:57.321Z,3.40
2017-10-29T16:14:25.731Z,4.90
2017-10-29T16:16:54.163Z,4.40
2017-10-29T16:19:22.608Z,4.40
2017-10-29T16:21:50.964Z,4.97
2017-10-29T16:24:19.375Z,3.90
2017-10-29T16:26:47.852Z,4.50
2017-10-29T16:29:16.251Z,4.87
2017-10-29T16:31:44.702Z,2.83
2017-10-29T16:34:13.407Z,4.73
2017-10-29T16:36:41.905Z,4.23
2017-10-29T16:39:10.644Z,5.87
2017-10-29T16:41:39.132Z,4.60
2017-10-29T16:44:07.427Z,4.57
2017-10-29T16:46:35.812Z,8.30
2017-10-29T16:49:04.226Z,5.37
2017-10-29T16:51:32.628Z,4.57
2017-10-29T16:54:01.089Z,5.17
2017-10-29T16:56:29.629Z,3.57
2017-10-29T16:58:58.138Z,4.00
2017-10-29T17:01:26.625Z,5.90
2017-10-29T17:03:55.033Z,5.77
2017-10-29T17:06:23.620Z,3.97
2017-10-29T17:08:51.950Z,5.03
2017-10-29T17:11:20.485Z,4.20
2017-10-29T17:13:48.872Z,4.43
2017-10-29T17:16:17.213Z,4.50
2017-10-29T17:18:45.803Z,5.63
2017-10-29T17:21:14.180Z,4.50
2017-10-29T17:23:42.601Z,4.37
2017-10-29T17:26:11.191Z,2.90
2017-10-29T17:28:39.666Z,4.10
2017-10-29T17:31:08.046Z,3.33
2017-10-29T17:33:36.528Z,3.93
2017-10-29T17:36:04.880Z,3.60
2017-10-29T17:38:33.188Z,5.30
2017-10-29T17:41:02.443Z,4.30
2017-10-29T17:43:30.839Z,4.93
2017-10-29T17:45:59.183Z,5.40
2017-10-29T17:48:27.823Z,4.10
2017-10-29T17:50:56.222Z,3.50
2017-10-29T17:53:24.551Z,4.90
2017-10-29T17:55:53.085Z,4.67
2017-10-29T17:58:21.627Z,4.57
2017-10-29T18:00:49.941Z,4.30
2017-10-29T18:03:18.516Z,4.40
2017-10-29T18:05:47.108Z,4.37
2017-10-29T18:08:15.475Z,4.07
2017-10-29T18:10:43.949Z,3.63
2017-10-29T18:13:12.399Z,5.20
2017-10-29T18:15:42.514Z,3.77
2017-10-29T18:18:11.935Z,5.47
2017-10-29T18:20:40.271Z,4.73
2017-10-29T18:23:08.622Z,4.13
2017-10-29T18:25:37.002Z,5.47
2017-10-29T18:28:05.366Z,4.40
2017-10-29T18:30:33.675Z,4.63
2017-10-29T18:33:02.486Z,6.67
2017-10-29T18:35:30.942Z,5.00
2017-10-29T18:37:59.583Z,4.73
2017-10-29T18:40:28.022Z,5.70
2017-10-29T18:42:56.361Z,3.67
2017-10-29T18:45:24.668Z,4.90
2017-10-29T18:47:53.226Z,5.70
2017-10-29T18:50:21.546Z,5.10
2017-10-29T18:52:49.918Z,3.77
2017-10-29T18:55:18.709Z,3.73
2017-10-29T18:57:47.022Z,5.10
2017-10-29T19:00:15.350Z,3.70
2017-10-29T19:02:43.780Z,4.83
2017-10-29T19:05:12.177Z,2.97
2017-10-29T19:07:40.530Z,3.93
2017-10-29T19:10:08.932Z,3.77
2017-10-29T19:12:37.235Z,5.00
2017-10-29T19:15:12.212Z,3.80
2017-10-29T19:17:40.527Z,3.33
2017-10-29T19:20:08.948Z,4.33
2017-10-29T19:22:37.317Z,5.27
2017-10-29T19:25:05.617Z,4.73
2017-10-29T19:27:33.976Z,3.73
2017-10-29T19:30:02.423Z,4.40
2017-10-29T19:32:30.772Z,5.50
2017-10-29T19:34:59.101Z,3.60
2017-10-29T19:37:27.529Z,6.23
2017-10-29T19:39:55.889Z,4.10
2017-10-29T19:42:24.352Z,3.33
2017-10-29T19:44:52.724Z,3.80
2017-10-29T19:47:21.066Z,4.47
2017-10-29T19:49:49.452Z,5.40
2017-10-29T19:52:17.926Z,4.60
2017-10-29T19:54:46.264Z,5.47
2017-10-29T19:57:14.599Z,4.60
2017-10-29T19:59:42.989Z,4.20
2017-10-29T20:02:11.439Z,5.30
2017-10-29T20:04:39.748Z,4.20
2017-10-29T20:07:08.259Z,5.20
2017-10-29T20:09:36.564Z,5.20
2017-10-29T20:12:04.925Z,4.97
2017-10-29T20:14:33.287Z,4.27
2017-10-29T20:17:02.193Z,5.03
2017-10-29T20:19:30.565Z,3.27
2017-10-29T20:21:58.952Z,3.63
2017-10-29T20:24:27.268Z,5.93
2017-10-29T20:26:56.428Z,5.00
2017-10-29T20:29:24.781Z,5.07
2017-10-29T20:31:53.138Z,4.60
2017-10-29T20:34:21.485Z,5.40
2017-10-29T20:36:49.860Z,4.73
2017-10-29T20:39:18.169Z,6.10
2017-10-29T20:41:46.478Z,5.20
2017-10-29T20:44:15.442Z,4.37
2017-10-29T20:46:43.855Z,4.53
2017-10-29T20:49:12.182Z,4.90
2017-10-29T20:51:40.616Z,4.30
2017-10-29T20:54:08.944Z,4.40
2017-10-29T20:56:37.515Z,4.83
2017-10-29T20:59:05.837Z,4.70
2017-10-29T21:01:34.182Z,3.93
2017-10-29T21:04:02.732Z,4.23
2017-10-29T21:06:31.077Z,3.90
2017-10-29T21:08:59.379Z,4.20
2017-10-29T21:11:27.700Z,3.40
2017-10-29T21:13:56.046Z,4.87
2017-10-29T21:16:24.369Z,3.87
2017-10-29T21:18:52.676Z,3.60
2017-10-29T21:21:21.040Z,4.67
2017-10-29T21:23:49.373Z,5.10
2017-10-29T21:26:17.677Z,4.77
2017-10-29T21:28:46.029Z,3.37
2017-10-29T21:31:14.361Z,5.60
2017-10-29T21:33:42.682Z,4.63
2017-10-29T21:36:11.065Z,4.07
2017-10-29T21:38:39.373Z,4.40
2017-10-29T21:41:07.677Z,4.50
2017-10-29T21:43:36.017Z,4.67
2017-10-29T21:46:04.332Z,4.03
2017-10-29T21:48:32.654Z,3.33
2017-10-29T21:51:01.127Z,3.40
2017-10-29T21:53:29.449Z,4.60
2017-10-29T21:55:57.809Z,3.63
2017-10-29T21:58:26.290Z,3.87
2017-10-29T22:00:54.617Z,4.70
2017-10-29T22:03:22.941Z,3.13
2017-10-29T22:05:51.306Z,2.90
2017-10-29T22:08:19.609Z,3.50
2017-10-29T22:10:47.932Z,4.17
2017-10-29T22:13:16.345Z,3.53
2017-10-29T22:15:44.727Z,3.03
2017-10-29T22:18:13.676Z,4.80
2017-10-29T22:20:43.151Z,3.43
2017-10-29T22:23:12.249Z,3.60
2017-10-29T22:25:40.601Z,3.63
2017-10-29T22:28:09.068Z,4.40
2017-10-29T22:30:37.395Z,4.07
2017-10-29T22:33:05.707Z,3.70
2017-10-29T22:35:34.040Z,3.17
2017-10-29T22:38:02.341Z,4.50
2017-10-29T22:40:30.694Z,4.43
2017-10-29T22:42:59.164Z,4.70
2017-10-29T22:45:27.471Z,2.47
2017-10-29T22:47:55.814Z,4.20
2017-10-29T22:50:24.361Z,3.50
2017-10-29T22:52:52.694Z,3.77
2017-10-29T22:55:21.000Z,3.70
2017-10-29T22:57:49.375Z,3.30
2017-10-29T23:00:17.670Z,3.93
2017-10-29T23:02:46.006Z,4.47
2017-10-29T23:05:14.463Z,3.60
2017-10-29T23:10:47.689Z,2.60
2017-10-29T23:13:16.038Z,5.53
2017-10-29T23:15:44.370Z,3.30
2017-10-29T23:18:12.951Z,3.87
2017-10-29T23:20:41.309Z,3.73
2017-10-29T23:23:09.633Z,3.60
2017-10-29T23:25:38.082Z,3.77
2017-10-29T23:28:06.388Z,4.30
2017-10-29T23:30:34.703Z,4.57
2017-10-29T23:33:03.146Z,3.43
2017-10-29T23:35:31.478Z,4.43
2017-10-29T23:37:59.778Z,4.57
2017-10-29T23:40:28.221Z,4.53
2017-10-29T23:42:56.599Z,5.10
2017-10-29T23:45:24.915Z,5.00
2017-10-29T23:47:53.251Z,4.43
2017-10-29T23:50:21.570Z,4.43
2017-10-29T23:52:49.919Z,4.37
2017-10-29T23:55:18.287Z,4.97
2017-10-29T23:57:46.611Z,4.50
